createdAt,value
2023-01-11T00:11:07.289Z,98210.31
2023-01-11T00:14:49.718Z,98207.28
2023-01-11T00:18:38.967Z,98210.08
2023-01-11T00:22:28.140Z,98215.73
2023-01-11T00:26:17.171Z,98222.55
2023-01-11T00:30:06.219Z,98221.58
2023-01-11T00:33:58.342Z,98217.15
2023-01-11T00:37:47.670Z,98220.48
2023-01-11T00:41:35.118Z,98221.13
2023-01-11T00:45:24.226Z,98221.56
2023-01-11T00:49:13.359Z,98224.35
2023-01-11T00:53:02.568Z,98225.27
2023-01-11T00:56:52.527Z,98225.11
2023-01-11T01:00:41.837Z,98232.24
2023-01-11T01:08:18.475Z,98236.60
2023-01-11T01:35:20.815Z,98238.95
2023-01-11T01:39:02.244Z,98236.98
2023-01-11T01:42:52.817Z,98234.40
2023-01-11T01:46:40.770Z,98230.49
2023-01-11T01:50:28.727Z,98222.02
2023-01-11T01:54:16.397Z,98216.22
2023-01-11T01:58:04.595Z,98213.83
2023-01-11T02:14:00.169Z,98208.27
2023-01-11T02:17:49.513Z,98204.98
2023-01-11T02:22:03.084Z,98205.77
2023-01-11T02:38:14.075Z,98203.20
2023-01-11T02:42:04.828Z,98209.47
2023-01-11T02:45:44.970Z,98205.92
2023-01-11T02:49:37.093Z,98206.64
2023-01-11T03:05:11.998Z,98201.80
2023-01-11T03:09:22.733Z,98208.11
2023-01-11T03:13:17.254Z,98204.79
2023-01-11T03:24:44.165Z,98210.77
2023-01-11T03:28:42.221Z,98212.09
2023-01-11T03:32:36.483Z,98208.61
2023-01-11T03:44:13.150Z,98188.13
2023-01-11T03:48:02.148Z,98183.97
2023-01-11T03:51:51.189Z,98185.00
2023-01-11T03:55:40.203Z,98180.54
2023-01-11T03:59:24.115Z,98180.98
2023-01-11T04:03:14.659Z,98183.30
2023-01-11T04:06:42.146Z,98186.80
2023-01-11T04:10:31.170Z,98185.10
2023-01-11T04:14:20.329Z,98176.77
2023-01-11T04:18:09.507Z,98177.96
2023-01-11T04:21:59.367Z,98174.92
2023-01-11T04:37:42.388Z,98175.63
2023-01-11T04:41:30.038Z,98172.76
2023-01-11T04:45:19.243Z,98176.58
2023-01-11T04:49:08.203Z,98173.86
2023-01-11T04:52:57.751Z,98162.19
2023-01-11T04:56:47.001Z,98153.18
2023-01-11T05:00:37.182Z,98156.63
2023-01-11T05:04:26.318Z,98154.06
2023-01-11T05:08:08.226Z,98145.56
2023-01-11T05:11:58.621Z,98131.91
2023-01-11T05:38:54.270Z,98134.02
2023-01-11T05:42:43.427Z,98129.71
2023-01-11T05:46:24.870Z,98128.64
2023-01-11T05:50:13.997Z,98121.69
2023-01-11T05:53:53.356Z,98122.16
2023-01-11T05:57:43.397Z,98122.41
2023-01-11T06:01:35.749Z,98120.52
2023-01-11T06:04:22.916Z,98114.92
2023-01-11T06:07:50.637Z,98117.67
2023-01-11T06:11:38.464Z,98116.04
2023-01-11T06:15:25.756Z,98117.54
2023-01-11T06:19:13.446Z,98123.64
2023-01-11T06:23:01.364Z,98115.73
2023-01-11T06:26:50.065Z,98116.82
2023-01-11T06:30:37.916Z,98109.23
2023-01-11T06:34:08.703Z,98108.00
2023-01-11T06:37:51.791Z,98106.98
2023-01-11T06:41:40.017Z,98102.08
2023-01-11T06:45:28.277Z,98104.49
2023-01-11T06:49:05.157Z,98107.32
2023-01-11T06:52:41.832Z,98110.10
2023-01-11T06:56:29.767Z,98116.52
2023-01-11T07:00:08.623Z,98118.58
2023-01-11T07:17:49.114Z,98099.33
2023-01-11T07:21:04.079Z,98097.50
2023-01-11T07:24:31.208Z,98095.95
2023-01-11T07:27:21.624Z,98095.59
2023-01-11T07:30:58.765Z,98095.30
2023-01-11T07:34:48.481Z,98086.08
2023-01-11T07:38:10.622Z,98082.77
2023-01-11T07:41:57.250Z,98082.46
2023-01-11T07:45:45.278Z,98086.67
2023-01-11T07:49:37.728Z,98078.63
2023-01-11T07:53:16.955Z,98071.54
2023-01-11T07:57:06.727Z,98068.07
2023-01-11T08:00:56.277Z,98069.08
2023-01-11T08:04:45.623Z,98072.23
2023-01-11T08:08:37.066Z,98070.36
2023-01-11T08:12:25.101Z,98068.55
2023-01-11T08:16:14.387Z,98067.55
2023-01-11T08:20:03.897Z,98066.32
2023-01-11T08:23:12.915Z,98067.14
2023-01-11T08:25:52.051Z,98063.36
2023-01-11T08:29:35.998Z,98059.86
2023-01-11T08:40:35.685Z,98053.58
2023-01-11T08:47:09.581Z,98051.95
2023-01-11T08:50:21.272Z,98061.64
2023-01-11T09:23:14.195Z,98062.61
2023-01-11T09:26:46.964Z,98060.25
2023-01-11T09:30:26.110Z,98053.06
2023-01-11T09:33:37.670Z,98055.52
2023-01-11T09:36:43.237Z,98058.36
2023-01-11T09:40:25.377Z,98056.69
2023-01-11T09:44:14.617Z,98054.05
2023-01-11T09:48:43.271Z,98055.23
2023-01-11T10:18:23.559Z,98015.68
2023-01-11T10:19:05.916Z,98014.46
2023-01-11T10:22:59.823Z,98005.91
2023-01-11T10:26:38.365Z,97997.58
2023-01-11T10:30:52.965Z,97996.07
2023-01-11T10:58:03.775Z,97988.75
2023-01-11T11:02:00.578Z,97978.80
2023-01-11T11:16:58.626Z,97958.16
2023-01-11T11:20:44.239Z,97954.02
2023-01-11T11:24:13.678Z,97941.90
2023-01-11T11:28:05.921Z,97939.21
2023-01-11T11:31:36.424Z,97934.35
2023-01-11T11:35:06.993Z,97933.05
2023-01-11T11:50:27.413Z,97919.20
2023-01-11T11:54:31.113Z,97918.95
2023-01-11T11:57:22.418Z,97916.39
2023-01-11T12:00:45.618Z,97917.02
2023-01-11T12:04:25.346Z,97915.14
2023-01-11T12:07:54.720Z,97913.79
2023-01-11T12:11:47.883Z,97910.39
2023-01-11T12:26:56.277Z,97890.43
2023-01-11T12:30:54.702Z,97881.51
2023-01-11T12:34:32.168Z,97875.84
2023-01-11T12:38:54.792Z,97873.00
2023-01-11T12:42:36.960Z,97864.16
2023-01-11T12:50:22.703Z,97847.95
2023-01-11T13:09:02.471Z,97835.56
2023-01-11T13:13:00.613Z,97828.30
2023-01-11T13:28:44.309Z,97812.27
2023-01-11T13:32:34.848Z,97818.05
2023-01-11T13:36:47.335Z,97821.73
2023-01-11T13:40:37.646Z,97823.58
2023-01-11T13:52:31.206Z,97813.48
2023-01-11T13:56:20.307Z,97814.46
2023-01-11T14:00:12.695Z,97814.94
2023-01-11T14:04:03.103Z,97815.09
2023-01-11T14:16:33.399Z,97812.70
2023-01-11T14:20:21.234Z,97809.48
2023-01-11T14:24:34.507Z,97809.98
2023-01-11T14:28:15.893Z,97803.16
2023-01-11T14:44:17.057Z,97779.01
2023-01-11T14:48:30.881Z,97774.14
2023-01-11T14:52:39.634Z,97767.69
2023-01-11T15:08:23.040Z,97748.48
2023-01-11T15:12:21.814Z,97746.52
2023-01-11T15:16:12.647Z,97752.45
2023-01-11T15:24:05.796Z,97741.12
2023-01-11T15:28:05.131Z,97735.13
2023-01-11T15:32:12.602Z,97741.44
2023-01-11T15:40:03.898Z,97731.50
2023-01-11T15:43:57.263Z,97726.36
2023-01-11T15:47:44.896Z,97724.55
2023-01-11T15:51:36.823Z,97716.52
2023-01-11T16:07:27.923Z,97705.71
2023-01-11T16:11:17.350Z,97710.42
2023-01-11T16:15:20.268Z,97720.99
2023-01-11T16:27:40.431Z,97718.00
2023-01-11T16:31:10.879Z,97712.91
2023-01-11T16:34:38.663Z,97709.66
2023-01-11T16:38:03.253Z,97706.60
2023-01-11T16:41:52.089Z,97704.69
2023-01-11T16:53:36.306Z,97703.41
2023-01-11T16:57:21.207Z,97708.50
2023-01-11T17:01:19.507Z,97708.93
2023-01-11T17:04:45.107Z,97706.67
2023-01-11T17:20:14.578Z,97715.83
2023-01-11T17:24:03.654Z,97728.22
2023-01-11T17:27:56.098Z,97731.70
2023-01-11T17:39:44.934Z,97720.71
2023-01-11T17:43:37.204Z,97715.98
2023-01-11T17:47:19.204Z,97711.20
2023-01-11T17:51:27.868Z,97707.10
2023-01-11T18:07:21.282Z,97690.98
2023-01-11T18:11:20.537Z,97688.84
2023-01-11T18:15:08.892Z,97683.14
2023-01-11T18:23:13.314Z,97684.95
2023-01-11T18:27:08.780Z,97686.92
2023-01-11T18:31:11.207Z,97686.07
2023-01-11T18:34:30.132Z,97687.42
2023-01-11T18:37:20.258Z,97689.89
2023-01-11T18:40:51.191Z,97693.13
2023-01-11T18:44:31.200Z,97695.23
2023-01-11T18:48:29.991Z,97690.88
2023-01-11T18:52:00.921Z,97692.53
2023-01-11T19:04:19.098Z,97707.27
2023-01-11T19:08:06.648Z,97723.27
2023-01-11T19:11:24.243Z,97726.02
2023-01-11T19:15:11.979Z,97728.23
2023-01-11T19:19:00.123Z,97731.71
2023-01-11T19:46:11.500Z,97733.36
2023-01-11T19:49:59.832Z,97728.17
2023-01-11T19:53:49.006Z,97729.10
2023-01-11T19:57:41.288Z,97731.23
2023-01-11T20:01:30.518Z,97730.30
2023-01-11T20:05:02.016Z,97729.86
2023-01-11T20:08:51.277Z,97725.30
2023-01-11T20:12:40.689Z,97722.18
2023-01-11T20:15:59.818Z,97717.45
2023-01-11T20:18:55.679Z,97713.84
2023-01-11T20:22:44.723Z,97706.60
2023-01-11T20:25:56.370Z,97704.98
2023-01-11T20:29:45.737Z,97702.84
2023-01-11T20:36:54.139Z,97700.96
2023-01-11T20:55:52.060Z,97688.31
2023-01-11T20:58:50.498Z,97687.65
2023-01-11T21:02:31.067Z,97690.98
2023-01-11T21:06:19.255Z,97695.70
2023-01-11T21:09:58.253Z,97711.09
2023-01-11T21:13:46.261Z,97720.19
2023-01-11T21:16:35.929Z,97734.85
2023-01-11T21:20:03.183Z,97742.09
2023-01-11T21:23:51.148Z,97744.54
2023-01-11T21:27:29.018Z,97745.23
2023-01-11T21:31:18.803Z,97746.89
2023-01-11T21:35:07.202Z,97746.86
2023-01-11T21:38:55.649Z,97751.12
2023-01-11T21:42:44.112Z,97752.48
2023-01-11T21:46:27.865Z,97757.30
2023-01-11T21:50:17.986Z,97759.61
2023-01-11T21:53:45.389Z,97763.21
2023-01-11T22:01:20.493Z,97768.36
2023-01-11T22:05:11.566Z,97774.35
2023-01-11T22:08:58.784Z,97774.51
2023-01-11T22:12:46.498Z,97776.85
2023-01-11T22:16:35.541Z,97785.52
2023-01-11T22:27:57.646Z,97793.27
2023-01-11T22:31:44.919Z,97800.71
2023-01-11T22:35:21.981Z,97808.58
2023-01-11T22:46:40.805Z,97806.77
2023-01-11T22:50:07.685Z,97815.40
2023-01-11T22:52:43.257Z,97820.36
2023-01-11T22:56:10.451Z,97822.52
2023-01-11T22:59:35.999Z,97837.16
2023-01-11T23:03:23.652Z,97844.20
2023-01-11T23:06:54.692Z,97845.02
2023-01-11T23:09:44.567Z,97847.67
2023-01-11T23:12:50.679Z,97844.92
2023-01-11T23:16:25.598Z,97848.64
2023-01-11T23:20:13.144Z,97847.73
2023-01-11T23:23:26.918Z,97851.40
2023-01-11T23:27:04.701Z,97856.51
2023-01-11T23:30:52.352Z,97849.70
2023-01-11T23:34:40.014Z,97852.63
2023-01-11T23:49:50.822Z,97848.02
2023-01-11T23:53:38.588Z,97853.73
2023-01-11T23:57:24.965Z,97855.93
